Time;durP1;ratioP1;P1;durP2;ratioP2;P2;SDS_P1;SDS_P2;PMS_P1;PMS_P2;Temp;Humidity;BMP_temperature;BMP_pressure;BME280_temperature;BME280_humidity;BME280_pressure;Samples;Min_cycle;Max_cycle;Signal;HPM_P1;HPM_P2
2023/09/05 00:00:30;;;;;;;4.38;1.77;;;;;;;;;;4962449;28;20090;-65
2023/09/05 00:02:58;;;;;;;3.47;1.60;;;;;;;;;;4963840;28;20373;-67
2023/09/05 00:05:27;;;;;;;3.95;1.80;;;;;;;;;;4963542;28;20058;-70
2023/09/05 00:07:55;;;;;;;3.42;1.73;;;;;;;;;;4965263;28;20492;-63
2023/09/05 00:10:24;;;;;;;1.58;1.40;;;;;;;;;;4962073;28;20051;-64
2023/09/05 00:12:53;;;;;;;3.58;1.70;;;;;;;;;;4960701;28;20127;-65
2023/09/05 00:15:23;;;;;;;5.35;1.70;;;;;;;;;;4960746;28;20043;-67
2023/09/05 00:17:51;;;;;;;3.13;1.60;;;;;;;;;;4964728;28;20051;-67
2023/09/05 00:20:20;;;;;;;3.40;1.83;;;;;;;;;;4964602;28;20043;-64
2023/09/05 00:22:48;;;;;;;3.78;1.88;;;;;;;;;;4959323;28;20452;-65
2023/09/05 00:25:16;;;;;;;4.13;1.75;;;;;;;;;;4963535;28;20190;-66
2023/09/05 00:27:45;;;;;;;2.90;1.67;;;;;;;;;;4963562;28;20049;-70
2023/09/05 00:30:14;;;;;;;2.95;1.90;;;;;;;;;;4962389;28;20496;-64
2023/09/05 00:32:46;;;;;;;4.25;2.10;;;;;;;;;;4964975;28;20153;-64
2023/09/05 00:35:15;;;;;;;3.28;1.88;;;;;;;;;;4963114;28;20466;-63
2023/09/05 00:37:43;;;;;;;4.28;2.13;;;;;;;;;;4967440;28;20046;-65
2023/09/05 00:40:12;;;;;;;3.53;1.77;;;;;;;;;;4960907;28;20085;-66
2023/09/05 00:42:40;;;;;;;3.05;1.63;;;;;;;;;;4962128;28;20043;-64
2023/09/05 00:45:10;;;;;;;4.25;1.80;;;;;;;;;;4960463;28;20066;-66
2023/09/05 00:47:39;;;;;;;5.28;2.00;;;;;;;;;;4962753;28;20149;-65
2023/09/05 00:50:10;;;;;;;2.47;1.40;;;;;;;;;;4962419;28;20484;-65
2023/09/05 00:52:39;;;;;;;2.85;1.90;;;;;;;;;;4964796;28;20069;-65
2023/09/05 00:55:08;;;;;;;2.50;1.67;;;;;;;;;;4967242;28;20105;-66
2023/09/05 00:57:37;;;;;;;2.50;1.58;;;;;;;;;;4961260;28;20133;-68
2023/09/05 01:00:06;;;;;;;2.60;1.67;;;;;;;;;;4965074;28;20050;-67
2023/09/05 01:02:35;;;;;;;5.22;1.70;;;;;;;;;;4966730;28;20121;-65
2023/09/05 01:05:04;;;;;;;3.85;1.77;;;;;;;;;;5010953;23;20081;-63
2023/09/05 01:07:41;;;;;;;4.53;1.77;;;;;;;;;;5017171;28;20045;-63
2023/09/05 01:10:12;;;;;;;3.83;1.98;;;;;;;;;;5013164;28;20112;-63
2023/09/05 01:12:40;;;;;;;3.42;1.80;;;;;;;;;;5009526;28;20115;-61
2023/09/05 01:15:09;;;;;;;4.05;2.35;;;;;;;;;;5010032;28;20733;-63
2023/09/05 01:17:37;;;;;;;2.50;1.63;;;;;;;;;;5014165;28;20160;-63
2023/09/05 01:20:07;;;;;;;5.38;2.03;;;;;;;;;;5008682;28;20054;-65
2023/09/05 01:22:45;;;;;;;5.70;1.85;;;;;;;;;;5006561;28;20432;-65
2023/09/05 01:25:16;;;;;;;2.90;1.75;;;;;;;;;;5007004;28;20045;-62
2023/09/05 01:27:48;;;;;;;4.25;1.67;;;;;;;;;;5007188;28;20050;-68
2023/09/05 01:33:03;;;;;;;6.43;2.83;;;;;;;;;;4930223;23;20180;-86
2023/09/05 01:35:31;;;;;;;3.35;1.90;;;;;;;;;;4926770;29;20056;-86
2023/09/05 01:38:03;;;;;;;5.28;2.15;;;;;;;;;;4929154;29;20063;-86
2023/09/05 01:40:32;;;;;;;4.43;1.92;;;;;;;;;;4929782;29;20053;-86
2023/09/05 01:43:01;;;;;;;3.85;2.10;;;;;;;;;;4929273;29;20120;-84
2023/09/05 01:45:29;;;;;;;6.20;1.95;;;;;;;;;;4929700;29;20454;-84
2023/09/05 01:47:58;;;;;;;2.67;1.58;;;;;;;;;;4928562;29;20107;-85
2023/09/05 01:50:32;;;;;;;4.30;2.25;;;;;;;;;;4918832;29;20404;-84
2023/09/05 01:53:00;;;;;;;4.68;2.20;;;;;;;;;;4908833;29;20052;-85
2023/09/05 01:55:29;;;;;;;2.45;1.70;;;;;;;;;;4910567;29;20052;-84
2023/09/05 01:57:59;;;;;;;5.07;2.17;;;;;;;;;;4906643;29;20573;-84
2023/09/05 02:00:27;;;;;;;3.65;1.90;;;;;;;;;;4910016;29;20462;-85
2023/09/05 02:02:55;;;;;;;3.05;1.50;;;;;;;;;;4909170;29;20569;-86
2023/09/05 02:05:24;;;;;;;2.95;1.92;;;;;;;;;;4910520;29;20438;-85
2023/09/05 02:07:52;;;;;;;3.85;2.20;;;;;;;;;;4910601;29;20088;-86
2023/09/05 02:10:21;;;;;;;3.53;1.50;;;;;;;;;;4908487;29;20071;-85
2023/09/05 02:12:50;;;;;;;6.43;2.35;;;;;;;;;;4909457;29;20447;-85
2023/09/05 02:15:19;;;;;;;4.35;2.20;;;;;;;;;;4910932;29;20521;-85
2023/09/05 02:17:48;;;;;;;3.78;1.90;;;;;;;;;;4909741;29;20052;-85
2023/09/05 02:20:16;;;;;;;4.60;1.80;;;;;;;;;;4915271;29;20040;-85
2023/09/05 02:22:45;;;;;;;5.07;2.15;;;;;;;;;;4927030;29;20055;-85
2023/09/05 02:25:13;;;;;;;3.90;2.15;;;;;;;;;;4929886;29;20040;-84
2023/09/05 02:27:42;;;;;;;5.10;1.90;;;;;;;;;;4927261;29;20048;-84
2023/09/05 02:30:10;;;;;;;4.72;2.70;;;;;;;;;;4926597;29;20047;-86
2023/09/05 02:32:43;;;;;;;5.00;2.40;;;;;;;;;;4929393;29;20545;-85
2023/09/05 02:35:14;;;;;;;3.80;2.03;;;;;;;;;;4927085;29;20167;-85
2023/09/05 02:37:42;;;;;;;7.88;1.90;;;;;;;;;;4928112;29;20059;-86
2023/09/05 02:40:11;;;;;;;4.25;1.85;;;;;;;;;;4927272;29;20588;-85
2023/09/05 02:42:39;;;;;;;3.88;2.05;;;;;;;;;;4927955;29;20055;-85
2023/09/05 02:45:08;;;;;;;3.92;1.85;;;;;;;;;;4926611;29;20063;-84
2023/09/05 02:47:36;;;;;;;8.32;2.50;;;;;;;;;;4920598;29;20111;-85
2023/09/05 02:50:07;;;;;;;3.17;1.90;;;;;;;;;;4928598;29;20123;-85
2023/09/05 02:52:35;;;;;;;4.30;2.08;;;;;;;;;;4931130;29;20054;-84
2023/09/05 02:55:15;;;;;;;4.63;2.17;;;;;;;;;;4929413;29;20410;-84
2023/09/05 02:57:43;;;;;;;4.30;2.08;;;;;;;;;;4924077;29;20066;-84
2023/09/05 03:00:12;;;;;;;4.05;1.75;;;;;;;;;;4927167;29;20158;-85
2023/09/05 03:02:43;;;;;;;4.05;1.92;;;;;;;;;;4931072;29;20461;-84
2023/09/05 03:05:13;;;;;;;5.13;2.10;;;;;;;;;;4927179;29;20465;-84
2023/09/05 03:07:42;;;;;;;4.00;1.77;;;;;;;;;;4927754;29;20091;-84
2023/09/05 03:10:10;;;;;;;3.92;1.95;;;;;;;;;;4929327;29;20659;-85
2023/09/05 03:12:39;;;;;;;2.90;1.48;;;;;;;;;;4927701;29;20486;-87
2023/09/05 03:15:08;;;;;;;3.10;1.70;;;;;;;;;;4927616;29;20469;-84
2023/09/05 03:17:36;;;;;;;3.08;1.70;;;;;;;;;;4928305;29;20100;-86
2023/09/05 03:20:06;;;;;;;3.53;1.98;;;;;;;;;;4927633;29;20149;-85
2023/09/05 03:22:36;;;;;;;3.70;2.08;;;;;;;;;;4925283;29;20055;-84
2023/09/05 03:25:05;;;;;;;3.20;1.92;;;;;;;;;;4929404;29;20044;-85
2023/09/05 03:27:33;;;;;;;3.90;1.98;;;;;;;;;;4926177;29;20079;-84
2023/09/05 03:30:02;;;;;;;4.72;2.15;;;;;;;;;;4926074;29;20056;-84
2023/09/05 03:32:30;;;;;;;4.60;2.10;;;;;;;;;;4923717;29;20536;-85
2023/09/05 03:34:59;;;;;;;3.80;1.65;;;;;;;;;;4926199;29;20051;-86
2023/09/05 03:37:28;;;;;;;3.63;2.10;;;;;;;;;;4929311;29;20399;-84
2023/09/05 03:39:58;;;;;;;3.00;2.08;;;;;;;;;;4930170;29;20603;-85
2023/09/05 03:42:26;;;;;;;4.15;2.42;;;;;;;;;;4928669;29;20055;-85
2023/09/05 03:44:55;;;;;;;3.90;1.80;;;;;;;;;;4927256;29;20051;-85
2023/09/05 03:47:23;;;;;;;4.60;2.15;;;;;;;;;;4928014;29;20552;-86
2023/09/05 03:49:51;;;;;;;3.53;1.90;;;;;;;;;;4924821;29;20084;-84
2023/09/05 03:52:20;;;;;;;3.42;1.98;;;;;;;;;;4927463;29;20110;-86
2023/09/05 03:54:48;;;;;;;3.40;2.05;;;;;;;;;;4928832;29;20083;-85
2023/09/05 03:57:18;;;;;;;2.88;2.15;;;;;;;;;;4931302;29;20055;-85
2023/09/05 03:59:46;;;;;;;4.32;1.98;;;;;;;;;;4922971;29;20662;-85
2023/09/05 04:02:15;;;;;;;3.42;1.90;;;;;;;;;;4924417;29;20059;-84
2023/09/05 04:04:43;;;;;;;3.50;1.98;;;;;;;;;;4930691;29;20121;-84
2023/09/05 04:07:11;;;;;;;5.72;2.45;;;;;;;;;;4927442;29;20115;-84
2023/09/05 04:09:40;;;;;;;4.65;2.20;;;;;;;;;;4927498;29;20108;-85
2023/09/05 04:12:09;;;;;;;5.00;2.53;;;;;;;;;;4927260;29;20102;-85
2023/09/05 04:14:38;;;;;;;5.00;2.13;;;;;;;;;;4926045;29;20116;-85
2023/09/05 04:17:07;;;;;;;4.25;2.08;;;;;;;;;;4924988;29;20055;-84
2023/09/05 04:19:35;;;;;;;3.80;2.13;;;;;;;;;;4926265;29;20107;-85
2023/09/05 04:22:04;;;;;;;4.20;2.03;;;;;;;;;;4927787;29;20043;-86
2023/09/05 04:24:32;;;;;;;4.97;2.47;;;;;;;;;;4929317;29;20115;-84
2023/09/05 04:27:00;;;;;;;5.38;2.33;;;;;;;;;;4928897;29;20584;-85
2023/09/05 04:29:29;;;;;;;3.75;2.20;;;;;;;;;;4924340;29;20110;-84
2023/09/05 04:31:59;;;;;;;3.35;2.25;;;;;;;;;;4927749;29;20138;-84
2023/09/05 04:34:27;;;;;;;4.18;2.28;;;;;;;;;;4931565;29;20118;-87
2023/09/05 04:36:56;;;;;;;5.47;2.10;;;;;;;;;;4926995;29;20301;-84
2023/09/05 04:39:24;;;;;;;2.55;2.05;;;;;;;;;;4931602;29;20597;-85
2023/09/05 04:41:53;;;;;;;3.78;1.90;;;;;;;;;;4927330;29;20058;-86
2023/09/05 04:44:21;;;;;;;4.70;2.00;;;;;;;;;;4928622;29;20048;-90
2023/09/05 04:46:53;;;;;;;5.00;2.25;;;;;;;;;;4925929;29;20055;-89
2023/09/05 04:49:24;;;;;;;6.88;2.15;;;;;;;;;;4929421;29;20043;-88
2023/09/05 04:51:52;;;;;;;4.05;1.95;;;;;;;;;;4927066;29;20071;-85
2023/09/05 04:54:21;;;;;;;4.47;2.33;;;;;;;;;;4930276;29;20050;-87
2023/09/05 04:56:51;;;;;;;3.50;2.20;;;;;;;;;;4929861;29;20494;-86
2023/09/05 04:59:20;;;;;;;6.20;2.28;;;;;;;;;;4928132;29;20095;-88
2023/09/05 05:01:49;;;;;;;4.80;2.47;;;;;;;;;;4930358;29;20413;-84
2023/09/05 05:04:17;;;;;;;5.07;2.65;;;;;;;;;;4930321;29;20052;-86
2023/09/05 05:06:47;;;;;;;3.78;2.03;;;;;;;;;;4928372;29;20450;-85
2023/09/05 05:09:16;;;;;;;3.47;2.28;;;;;;;;;;4930686;29;20552;-84
2023/09/05 05:11:44;;;;;;;2.65;1.92;;;;;;;;;;4927541;29;20330;-88
2023/09/05 05:14:15;;;;;;;4.38;2.10;;;;;;;;;;4927368;29;20056;-83
2023/09/05 05:16:44;;;;;;;2.95;1.98;;;;;;;;;;4928563;29;20103;-86
2023/09/05 05:19:12;;;;;;;4.25;2.30;;;;;;;;;;4931236;29;20111;-86
2023/09/05 05:21:41;;;;;;;3.83;2.08;;;;;;;;;;4926906;29;20413;-84
2023/09/05 05:24:11;;;;;;;4.30;2.03;;;;;;;;;;4930517;29;20114;-84
2023/09/05 05:26:39;;;;;;;6.05;2.28;;;;;;;;;;4928832;29;20067;-84
2023/09/05 05:29:08;;;;;;;2.47;1.98;;;;;;;;;;4924007;29;20059;-84
2023/09/05 05:31:38;;;;;;;4.05;2.17;;;;;;;;;;4929166;29;20143;-85
2023/09/05 05:34:06;;;;;;;3.75;1.98;;;;;;;;;;4930849;29;20114;-85
2023/09/05 05:36:34;;;;;;;4.13;2.28;;;;;;;;;;4931178;29;20071;-86
2023/09/05 05:39:04;;;;;;;5.20;2.10;;;;;;;;;;4930557;29;20052;-84
2023/09/05 05:41:35;;;;;;;5.03;2.20;;;;;;;;;;4929399;29;20540;-84
2023/09/05 05:44:03;;;;;;;4.60;2.17;;;;;;;;;;4927282;29;20123;-84
2023/09/05 05:46:32;;;;;;;4.13;2.00;;;;;;;;;;4926327;29;20068;-86
2023/09/05 05:49:02;;;;;;;3.30;1.92;;;;;;;;;;4928460;29;20070;-87
2023/09/05 05:51:31;;;;;;;3.75;2.13;;;;;;;;;;4925894;29;20048;-85
2023/09/05 05:53:59;;;;;;;3.97;2.30;;;;;;;;;;4931161;29;20059;-84
2023/09/05 05:56:28;;;;;;;4.13;2.22;;;;;;;;;;4931070;29;20115;-84
2023/09/05 05:58:57;;;;;;;3.25;1.98;;;;;;;;;;4926680;29;20103;-87
2023/09/05 06:01:26;;;;;;;3.25;2.10;;;;;;;;;;4929050;29;20578;-84
2023/09/05 06:03:55;;;;;;;2.97;2.00;;;;;;;;;;4929433;29;20047;-84
2023/09/05 06:06:23;;;;;;;3.78;1.92;;;;;;;;;;4923772;29;20083;-84
2023/09/05 06:08:52;;;;;;;3.47;2.00;;;;;;;;;;4928934;29;20075;-87
2023/09/05 06:11:20;;;;;;;5.88;2.20;;;;;;;;;;4927675;29;20090;-86
2023/09/05 06:13:51;;;;;;;3.58;1.95;;;;;;;;;;4925701;29;20126;-85
2023/09/05 06:16:22;;;;;;;3.90;2.25;;;;;;;;;;4928659;29;20051;-85
2023/09/05 06:18:51;;;;;;;5.05;2.20;;;;;;;;;;4930362;29;20059;-85
2023/09/05 06:21:19;;;;;;;3.83;2.25;;;;;;;;;;4928575;29;20047;-85
2023/09/05 06:23:47;;;;;;;4.28;2.40;;;;;;;;;;4926882;29;20040;-85
2023/09/05 06:26:16;;;;;;;3.78;2.30;;;;;;;;;;4925759;29;20043;-87
2023/09/05 06:28:45;;;;;;;4.05;2.05;;;;;;;;;;4927735;29;20047;-84
2023/09/05 06:31:13;;;;;;;3.42;2.20;;;;;;;;;;4928322;29;20115;-84
2023/09/05 06:33:43;;;;;;;4.35;2.55;;;;;;;;;;4927202;29;20337;-84
2023/09/05 06:36:12;;;;;;;6.18;2.40;;;;;;;;;;4924965;29;20082;-85
2023/09/05 06:38:41;;;;;;;5.35;2.53;;;;;;;;;;4929939;29;20047;-87
2023/09/05 06:41:10;;;;;;;5.00;2.22;;;;;;;;;;4927061;29;20072;-84
2023/09/05 06:43:39;;;;;;;7.20;2.35;;;;;;;;;;4928002;29;21206;-84
2023/09/05 06:46:08;;;;;;;6.45;2.80;;;;;;;;;;4929972;29;20044;-84
2023/09/05 06:48:37;;;;;;;3.75;1.90;;;;;;;;;;4925010;29;20083;-85
2023/09/05 06:51:07;;;;;;;7.57;2.42;;;;;;;;;;4921274;29;20048;-89
2023/09/05 06:53:35;;;;;;;5.50;2.70;;;;;;;;;;4927004;29;20051;-85
2023/09/05 06:56:05;;;;;;;4.78;2.20;;;;;;;;;;4925742;29;20043;-85
2023/09/05 06:58:33;;;;;;;5.45;2.30;;;;;;;;;;4928931;29;20089;-85
2023/09/05 07:01:05;;;;;;;5.47;2.70;;;;;;;;;;4925414;29;20122;-85
2023/09/05 07:03:34;;;;;;;4.25;2.13;;;;;;;;;;4927022;29;20052;-85
2023/09/05 07:06:04;;;;;;;4.90;2.42;;;;;;;;;;4927533;29;21208;-87
2023/09/05 07:08:36;;;;;;;6.15;2.55;;;;;;;;;;4926058;29;20134;-86
2023/09/05 07:11:04;;;;;;;6.38;3.40;;;;;;;;;;4927931;29;20051;-86
2023/09/05 07:13:34;;;;;;;5.63;2.38;;;;;;;;;;4925588;29;20118;-85
2023/09/05 07:16:03;;;;;;;4.70;2.42;;;;;;;;;;4925262;29;20595;-86
2023/09/05 07:18:31;;;;;;;5.50;2.35;;;;;;;;;;4926630;29;20370;-86
2023/09/05 07:21:00;;;;;;;4.22;2.25;;;;;;;;;;4925533;29;20465;-85
2023/09/05 07:23:28;;;;;;;4.80;2.38;;;;;;;;;;4922685;29;20497;-86
2023/09/05 07:25:58;;;;;;;6.95;2.47;;;;;;;;;;4924870;29;20055;-87
2023/09/05 07:28:26;;;;;;;6.13;2.58;;;;;;;;;;4925103;29;20126;-85
2023/09/05 07:30:55;;;;;;;4.85;2.55;;;;;;;;;;4927220;29;20142;-86
2023/09/05 07:33:24;;;;;;;5.53;2.85;;;;;;;;;;4926534;29;20047;-86
2023/09/05 07:35:52;;;;;;;4.75;2.33;;;;;;;;;;4926688;29;20059;-87
2023/09/05 07:38:21;;;;;;;4.85;2.42;;;;;;;;;;4922645;29;20135;-85
2023/09/05 07:40:50;;;;;;;3.15;2.08;;;;;;;;;;4926973;29;20078;-85
2023/09/05 07:43:21;;;;;;;6.68;2.70;;;;;;;;;;4928411;29;20993;-85
2023/09/05 07:45:49;;;;;;;3.67;2.00;;;;;;;;;;4926501;29;20048;-85
2023/09/05 07:48:18;;;;;;;7.13;2.17;;;;;;;;;;4923310;29;20457;-85
2023/09/05 07:50:46;;;;;;;6.00;2.40;;;;;;;;;;4924648;29;20044;-85
2023/09/05 07:53:18;;;;;;;4.30;2.30;;;;;;;;;;4925641;29;20051;-86
2023/09/05 07:55:47;;;;;;;3.78;1.98;;;;;;;;;;4925170;29;20051;-85
2023/09/05 07:58:15;;;;;;;4.95;2.10;;;;;;;;;;4926593;29;20054;-86
2023/09/05 08:00:47;;;;;;;2.63;1.85;;;;;;;;;;4924850;29;20545;-85
2023/09/05 08:03:16;;;;;;;3.95;1.92;;;;;;;;;;4931238;29;20079;-88
2023/09/05 08:05:44;;;;;;;4.32;2.17;;;;;;;;;;4932866;29;20079;-85
2023/09/05 08:08:13;;;;;;;5.22;2.38;;;;;;;;;;4929538;29;20059;-86
2023/09/05 08:10:41;;;;;;;3.17;1.73;;;;;;;;;;4931540;29;20066;-85
2023/09/05 08:13:12;;;;;;;4.70;1.77;;;;;;;;;;4932098;29;20111;-84
2023/09/05 08:15:43;;;;;;;4.05;2.08;;;;;;;;;;4932009;29;20059;-86
2023/09/05 08:18:13;;;;;;;3.58;1.98;;;;;;;;;;4930331;29;20098;-86
2023/09/05 08:20:43;;;;;;;4.97;2.22;;;;;;;;;;4929729;29;20099;-85
2023/09/05 08:23:12;;;;;;;4.22;1.98;;;;;;;;;;4930750;29;20079;-85
2023/09/05 08:25:41;;;;;;;3.15;1.90;;;;;;;;;;4931517;29;20058;-85
2023/09/05 08:28:09;;;;;;;5.00;2.05;;;;;;;;;;4930362;29;20058;-88
2023/09/05 08:30:38;;;;;;;4.15;2.28;;;;;;;;;;4926089;29;20490;-85
2023/09/05 08:33:07;;;;;;;5.82;2.20;;;;;;;;;;4912650;29;20047;-85
2023/09/05 08:35:37;;;;;;;2.95;1.98;;;;;;;;;;4913206;29;20052;-84
2023/09/05 08:38:06;;;;;;;4.68;1.83;;;;;;;;;;4912731;29;20051;-86
2023/09/05 08:40:35;;;;;;;3.42;1.95;;;;;;;;;;4904469;29;20049;-86
2023/09/05 08:43:03;;;;;;;2.88;1.90;;;;;;;;;;4889992;29;20282;-85
2023/09/05 08:45:32;;;;;;;4.00;1.80;;;;;;;;;;4889978;29;20052;-88
2023/09/05 08:48:00;;;;;;;3.00;2.00;;;;;;;;;;4890632;29;20048;-86
2023/09/05 08:50:30;;;;;;;3.75;2.22;;;;;;;;;;4891404;29;20064;-86
2023/09/05 08:53:02;;;;;;;4.82;2.20;;;;;;;;;;4889808;29;20105;-84
2023/09/05 08:55:30;;;;;;;3.22;1.85;;;;;;;;;;4890996;29;20048;-88
2023/09/05 08:58:00;;;;;;;4.10;1.98;;;;;;;;;;4891872;29;20179;-89
2023/09/05 09:00:28;;;;;;;3.42;1.83;;;;;;;;;;4892272;29;20080;-87
2023/09/05 09:02:59;;;;;;;4.80;2.20;;;;;;;;;;4886968;29;20060;-87
2023/09/05 09:05:28;;;;;;;3.60;2.10;;;;;;;;;;4880202;29;20379;-87
2023/09/05 09:07:57;;;;;;;4.05;2.00;;;;;;;;;;4891101;29;20052;-87
2023/09/05 09:10:27;;;;;;;4.80;2.20;;;;;;;;;;4890092;29;20053;-87
2023/09/05 09:12:56;;;;;;;3.00;1.73;;;;;;;;;;4890928;29;20057;-87
2023/09/05 09:15:27;;;;;;;3.40;1.90;;;;;;;;;;4888631;29;20052;-86
2023/09/05 09:17:57;;;;;;;4.40;1.50;;;;;;;;;;4889383;29;20540;-86
2023/09/05 09:20:28;;;;;;;3.67;1.98;;;;;;;;;;4888392;29;20067;-87
2023/09/05 09:22:56;;;;;;;3.95;2.15;;;;;;;;;;4892691;29;20056;-87
2023/09/05 09:25:27;;;;;;;4.30;2.00;;;;;;;;;;4887024;29;20154;-90
2023/09/05 09:27:57;;;;;;;2.88;1.80;;;;;;;;;;4893253;29;20072;-88
2023/09/05 09:30:29;;;;;;;2.83;1.90;;;;;;;;;;4891969;29;20320;-87
2023/09/05 09:32:59;;;;;;;5.50;2.28;;;;;;;;;;4909258;29;20402;-88
2023/09/05 09:35:30;;;;;;;4.97;2.28;;;;;;;;;;4911359;29;20052;-90
2023/09/05 09:37:58;;;;;;;2.67;1.75;;;;;;;;;;4907653;29;20053;-88
2023/09/05 09:40:36;;;;;;;3.85;2.10;;;;;;;;;;4910568;29;20176;-88
2023/09/05 09:43:04;;;;;;;5.20;1.90;;;;;;;;;;4908820;29;20052;-88
2023/09/05 09:45:34;;;;;;;2.60;1.85;;;;;;;;;;4909592;29;20060;-87
2023/09/05 09:48:03;;;;;;;3.83;1.90;;;;;;;;;;4910994;29;20517;-89
2023/09/05 09:50:31;;;;;;;4.95;1.85;;;;;;;;;;4905097;29;20080;-88
2023/09/05 09:53:00;;;;;;;2.97;1.63;;;;;;;;;;4908664;29;20056;-88
2023/09/05 09:55:32;;;;;;;4.18;1.80;;;;;;;;;;4907488;29;20123;-88
2023/09/05 09:58:02;;;;;;;2.90;1.80;;;;;;;;;;4908672;29;20064;-88
2023/09/05 10:00:32;;;;;;;4.88;1.85;;;;;;;;;;4909684;29;20502;-88
2023/09/05 10:03:04;;;;;;;2.83;1.88;;;;;;;;;;4908844;29;20087;-88
2023/09/05 10:05:41;;;;;;;3.47;2.20;;;;;;;;;;4909666;29;20251;-88
2023/09/05 10:08:10;;;;;;;3.58;2.00;;;;;;;;;;4911794;29;20056;-88
2023/09/05 10:10:41;;;;;;;5.93;2.05;;;;;;;;;;4909239;29;20079;-88
2023/09/05 10:13:09;;;;;;;4.68;1.73;;;;;;;;;;4908910;29;20055;-88
2023/09/05 10:15:38;;;;;;;3.35;2.10;;;;;;;;;;4907415;29;20041;-90
2023/09/05 10:18:09;;;;;;;2.72;1.77;;;;;;;;;;4908550;29;20052;-89
2023/09/05 10:20:39;;;;;;;2.92;2.00;;;;;;;;;;4907467;29;20194;-89
2023/09/05 10:23:08;;;;;;;2.78;1.70;;;;;;;;;;4911107;29;20048;-89
2023/09/05 10:25:37;;;;;;;4.50;1.88;;;;;;;;;;4910610;29;20052;-90
2023/09/05 10:28:09;;;;;;;2.92;1.92;;;;;;;;;;4907673;29;20048;-89
2023/09/05 10:30:41;;;;;;;4.28;1.77;;;;;;;;;;4916856;23;20499;-85
2023/09/05 10:33:11;;;;;;;4.70;1.58;;;;;;;;;;4906618;29;20178;-84
2023/09/05 10:35:44;;;;;;;5.50;2.28;;;;;;;;;;4909994;29;20134;-86
2023/09/05 10:38:14;;;;;;;3.35;1.73;;;;;;;;;;4906447;29;20076;-84
2023/09/05 10:40:43;;;;;;;4.13;2.03;;;;;;;;;;4918673;29;20389;-87
2023/09/05 10:43:17;;;;;;;2.80;1.98;;;;;;;;;;4927799;29;20050;-85
2023/09/05 10:45:46;;;;;;;;;;;;;;;;;;4930454;29;20048;-86
2023/09/05 10:48:16;;;;;;;4.07;1.90;;;;;;;;;;4925127;29;19922;-86
2023/09/05 10:51:02;;;;;;;3.78;1.92;;;;;;;;;;4933870;29;20047;-87
2023/09/05 10:53:30;;;;;;;10.25;3.83;;;;;;;;;;4928298;29;20571;-93
2023/09/05 10:55:59;;;;;;;4.82;1.80;;;;;;;;;;4927199;29;20043;-89
2023/09/05 10:58:45;;;;;;;3.97;1.80;;;;;;;;;;4930673;29;20043;-89
2023/09/05 11:01:29;;;;;;;4.28;1.65;;;;;;;;;;4930966;29;20497;-88
2023/09/05 11:03:59;;;;;;;2.60;1.80;;;;;;;;;;4931206;29;20079;-87
2023/09/05 11:06:28;;;;;;;2.70;2.10;;;;;;;;;;4925910;29;20051;-86
2023/09/05 11:08:59;;;;;;;3.53;1.80;;;;;;;;;;4926678;29;20047;-88
2023/09/05 11:11:28;;;;;;;3.80;2.00;;;;;;;;;;4928305;29;20123;-92
2023/09/05 11:13:58;;;;;;;5.63;1.65;;;;;;;;;;4925763;29;20476;-91
2023/09/05 11:16:28;;;;;;;2.92;1.90;;;;;;;;;;4929544;29;20059;-89
2023/09/05 11:18:57;;;;;;;2.90;1.67;;;;;;;;;;4925584;29;20154;-86
2023/09/05 11:21:26;;;;;;;2.58;1.73;;;;;;;;;;4929897;29;20505;-89
2023/09/05 11:23:55;;;;;;;2.85;2.00;;;;;;;;;;4930372;29;20047;-89
2023/09/05 11:26:23;;;;;;;3.50;1.98;;;;;;;;;;4925012;29;20059;-92
2023/09/05 11:28:52;;;;;;;3.50;1.70;;;;;;;;;;4928231;29;20044;-88
2023/09/05 11:31:22;;;;;;;2.40;1.70;;;;;;;;;;4925258;29;20127;-86
2023/09/05 11:33:50;;;;;;;3.15;1.73;;;;;;;;;;4926438;29;20107;-88
2023/09/05 11:36:19;;;;;;;4.75;1.63;;;;;;;;;;4923064;29;20051;-90
2023/09/05 11:38:48;;;;;;;3.47;2.10;;;;;;;;;;4920706;29;20497;-88
2023/09/05 11:41:16;;;;;;;2.63;1.83;;;;;;;;;;4923009;29;20056;-91
2023/09/05 11:43:48;;;;;;;7.03;1.73;;;;;;;;;;4924817;29;20052;-86
2023/09/05 11:46:20;;;;;;;2.72;1.77;;;;;;;;;;4928192;29;20094;-93
2023/09/05 11:48:51;;;;;;;5.93;2.08;;;;;;;;;;4926923;29;20606;-89
2023/09/05 11:51:20;;;;;;;3.53;1.90;;;;;;;;;;4924747;29;20047;-85
2023/09/05 11:53:48;;;;;;;2.58;1.73;;;;;;;;;;4924298;29;20063;-89
2023/09/05 11:56:17;;;;;;;4.68;2.00;;;;;;;;;;4927802;29;20103;-89
2023/09/05 11:58:46;;;;;;;3.58;1.55;;;;;;;;;;4930610;29;20059;-89
2023/09/05 12:01:15;;;;;;;3.42;2.10;;;;;;;;;;4927214;29;20083;-89
2023/09/05 12:03:43;;;;;;;4.20;1.83;;;;;;;;;;4926837;29;20179;-89
2023/09/05 12:06:13;;;;;;;3.20;1.85;;;;;;;;;;4926329;29;20047;-89
2023/09/05 12:08:42;;;;;;;2.80;1.65;;;;;;;;;;4925459;29;20442;-88
2023/09/05 12:11:10;;;;;;;2.38;1.70;;;;;;;;;;4923789;29;20466;-87
2023/09/05 12:13:40;;;;;;;3.85;2.25;;;;;;;;;;4924575;29;20051;-89
2023/09/05 12:16:09;;;;;;;4.10;2.33;;;;;;;;;;4924314;29;20390;-88
2023/09/05 12:18:38;;;;;;;3.88;1.90;;;;;;;;;;4927528;29;20079;-87
2023/09/05 12:21:13;;;;;;;4.95;2.13;;;;;;;;;;4927911;29;20082;-89
2023/09/05 12:23:42;;;;;;;4.13;1.98;;;;;;;;;;4927968;29;20055;-90
2023/09/05 12:26:11;;;;;;;9.05;2.35;;;;;;;;;;4927426;29;20047;-89
2023/09/05 12:28:39;;;;;;;3.50;2.20;;;;;;;;;;4926935;29;20075;-87
2023/09/05 12:31:09;;;;;;;4.10;2.40;;;;;;;;;;4925531;29;20548;-88
2023/09/05 12:33:38;;;;;;;3.80;1.83;;;;;;;;;;4925867;29;20052;-86
2023/09/05 12:36:07;;;;;;;6.22;2.38;;;;;;;;;;4923533;29;20059;-86
2023/09/05 12:38:40;;;;;;;4.15;2.35;;;;;;;;;;4917007;29;20059;-87
2023/09/05 12:41:09;;;;;;;5.65;2.30;;;;;;;;;;4916964;29;20044;-87
2023/09/05 12:43:37;;;;;;;3.72;1.92;;;;;;;;;;4923865;29;20544;-87
2023/09/05 12:46:07;;;;;;;3.53;2.28;;;;;;;;;;4918281;29;20314;-86
2023/09/05 12:48:36;;;;;;;4.07;2.22;;;;;;;;;;4920423;29;20367;-87
2023/09/05 12:51:04;;;;;;;3.53;1.90;;;;;;;;;;4924212;29;20578;-87
2023/09/05 12:53:34;;;;;;;4.95;2.55;;;;;;;;;;4927320;29;20048;-84
2023/09/05 12:56:08;;;;;;;3.80;1.88;;;;;;;;;;4926835;29;20054;-85
2023/09/05 12:58:37;;;;;;;4.32;1.85;;;;;;;;;;4924479;29;20060;-85
2023/09/05 13:01:06;;;;;;;3.10;2.03;;;;;;;;;;4923538;29;20055;-86
2023/09/05 13:03:35;;;;;;;3.40;2.00;;;;;;;;;;4923836;29;20105;-85
2023/09/05 13:06:04;;;;;;;5.25;2.22;;;;;;;;;;4928482;29;20061;-84
2023/09/05 13:08:33;;;;;;;5.22;2.65;;;;;;;;;;4927958;29;20070;-86
2023/09/05 13:11:01;;;;;;;4.13;2.30;;;;;;;;;;4926263;29;20052;-84
2023/09/05 13:13:31;;;;;;;2.88;2.00;;;;;;;;;;4924100;29;20550;-87
2023/09/05 13:16:00;;;;;;;3.88;2.30;;;;;;;;;;4927834;29;20098;-85
2023/09/05 13:18:28;;;;;;;4.45;2.38;;;;;;;;;;4926157;29;20081;-84
2023/09/05 13:20:57;;;;;;;4.10;2.20;;;;;;;;;;4927763;29;20208;-87
2023/09/05 13:23:25;;;;;;;3.42;2.13;;;;;;;;;;4924719;29;20636;-85
2023/09/05 13:25:54;;;;;;;4.38;2.20;;;;;;;;;;4927851;29;20134;-85
2023/09/05 13:28:23;;;;;;;4.93;2.42;;;;;;;;;;4925651;29;20058;-85
2023/09/05 13:30:55;;;;;;;2.20;1.80;;;;;;;;;;4924627;29;20051;-85
2023/09/05 13:33:25;;;;;;;3.00;1.95;;;;;;;;;;4924686;29;20047;-88
2023/09/05 13:35:53;;;;;;;5.15;2.25;;;;;;;;;;4921908;29;20641;-85
2023/09/05 13:38:22;;;;;;;3.35;2.28;;;;;;;;;;4916821;29;20506;-86
2023/09/05 13:40:50;;;;;;;4.50;2.47;;;;;;;;;;4926805;29;20449;-84
2023/09/05 13:43:19;;;;;;;5.22;2.13;;;;;;;;;;4925491;29;20056;-87
2023/09/05 13:45:47;;;;;;;4.50;2.30;;;;;;;;;;4928309;29;20659;-87
2023/09/05 13:48:17;;;;;;;3.22;2.25;;;;;;;;;;4920546;29;20059;-87
2023/09/05 13:50:46;;;;;;;4.22;2.40;;;;;;;;;;4927318;29;20063;-86
2023/09/05 13:53:16;;;;;;;5.05;2.20;;;;;;;;;;4926420;29;20531;-86
2023/09/05 13:55:44;;;;;;;3.92;2.30;;;;;;;;;;4924206;29;20662;-86
2023/09/05 13:58:13;;;;;;;3.85;2.20;;;;;;;;;;4923897;29;20054;-88
2023/09/05 14:00:41;;;;;;;4.43;2.05;;;;;;;;;;4924829;29;20082;-86
2023/09/05 14:03:10;;;;;;;4.90;1.85;;;;;;;;;;4929511;29;20048;-88
2023/09/05 14:05:40;;;;;;;3.70;2.28;;;;;;;;;;4929538;29;20394;-87
2023/09/05 14:08:08;;;;;;;2.90;1.88;;;;;;;;;;4926958;29;20525;-85
2023/09/05 14:10:37;;;;;;;4.63;2.13;;;;;;;;;;4928162;29;20063;-86
2023/09/05 14:13:06;;;;;;;3.88;2.60;;;;;;;;;;4928110;29;20082;-87
2023/09/05 14:15:34;;;;;;;5.10;2.33;;;;;;;;;;4928953;29;20100;-88
2023/09/05 14:18:03;;;;;;;3.80;1.95;;;;;;;;;;4927194;29;20536;-87
2023/09/05 14:20:32;;;;;;;2.97;2.00;;;;;;;;;;4924735;29;20517;-87
2023/09/05 14:23:02;;;;;;;5.97;2.33;;;;;;;;;;4925864;29;20619;-86
2023/09/05 14:25:30;;;;;;;4.22;2.30;;;;;;;;;;4920450;29;20084;-87
2023/09/05 14:27:59;;;;;;;5.10;2.13;;;;;;;;;;4925254;29;20103;-87
2023/09/05 14:30:27;;;;;;;5.18;2.40;;;;;;;;;;4921753;29;20055;-86
2023/09/05 14:32:56;;;;;;;4.68;2.30;;;;;;;;;;4923009;29;20059;-87
2023/09/05 14:35:25;;;;;;;4.38;2.17;;;;;;;;;;4923406;29;20048;-87
2023/09/05 14:37:54;;;;;;;5.85;2.55;;;;;;;;;;4925203;29;20478;-87
2023/09/05 14:40:25;;;;;;;3.70;2.13;;;;;;;;;;4920184;29;20048;-88
2023/09/05 14:42:54;;;;;;;3.97;2.03;;;;;;;;;;4923287;29;20465;-87
2023/09/05 14:45:23;;;;;;;4.22;2.42;;;;;;;;;;4924835;29;20784;-87
2023/09/05 14:47:51;;;;;;;3.45;2.17;;;;;;;;;;4922725;29;20059;-88
2023/09/05 14:50:21;;;;;;;3.92;2.45;;;;;;;;;;4924106;29;20071;-87
2023/09/05 14:52:54;;;;;;;4.18;2.20;;;;;;;;;;4921875;29;21158;-88
2023/09/05 14:55:25;;;;;;;3.95;2.03;;;;;;;;;;4921497;29;20047;-88
2023/09/05 14:57:54;;;;;;;4.80;1.95;;;;;;;;;;4920930;29;20048;-86